Time;durP1;ratioP1;P1;durP2;ratioP2;P2;SDS_P1;SDS_P2;PMS_P1;PMS_P2;Temp;Humidity;BMP_temperature;BMP_pressure;BME280_temperature;BME280_humidity;BME280_pressure;Samples;Min_cycle;Max_cycle;Signal;HPM_P1;HPM_P2
2022/04/24 15:37:36;;;;;;;14.80;2.93;;;;;;;;;;5082833;28;20373;-88
2022/04/24 15:40:05;;;;;;;16.60;2.93;;;;;;;;;;5080117;28;20443;-82
2022/04/24 15:42:34;;;;;;;13.43;2.37;;;;;;;;;;5069075;28;20964;-81
2022/04/24 15:45:22;;;;;;;15.57;2.90;;;;;;;;;;5086686;28;20982;-87
2022/04/24 15:47:50;;;;;;;13.87;2.33;;;;;;;;;;5089271;28;21021;-86
2022/04/24 15:50:18;;;;;;;14.83;2.57;;;;;;;;;;5089018;28;20457;-84
2022/04/24 15:52:48;;;;;;;14.47;3.33;;;;;;;;;;5089073;28;20444;-87
2022/04/24 15:55:16;;;;;;;17.30;2.70;;;;;;;;;;5089304;28;20534;-85
2022/04/24 15:57:44;;;;;;;13.13;2.63;;;;;;;;;;5089034;28;20528;-82
2022/04/24 16:00:12;;;;;;;13.43;2.40;;;;;;;;;;5089253;28;20509;-87
2022/04/24 16:02:40;;;;;;;12.80;2.10;;;;;;;;;;5089637;28;20450;-88
2022/04/24 16:05:09;;;;;;;18.97;3.00;;;;;;;;;;5088988;28;20504;-82
2022/04/24 16:07:37;;;;;;;21.13;2.87;;;;;;;;;;5088649;28;20447;-83
2022/04/24 16:10:07;;;;;;;14.43;2.50;;;;;;;;;;5088184;28;20436;-86
2022/04/24 16:12:35;;;;;;;14.80;2.40;;;;;;;;;;5085535;28;21163;-85
2022/04/24 16:15:04;;;;;;;13.43;2.33;;;;;;;;;;5087985;28;20434;-86
2022/04/24 16:17:34;;;;;;;14.13;2.10;;;;;;;;;;5087832;28;21070;-81
2022/04/24 16:20:06;;;;;;;18.07;2.83;;;;;;;;;;5088830;28;20436;-83
2022/04/24 16:22:34;;;;;;;16.67;2.60;;;;;;;;;;5088233;28;20449;-83
2022/04/24 16:25:02;;;;;;;15.70;2.43;;;;;;;;;;5088340;28;20443;-87
2022/04/24 16:27:31;;;;;;;13.90;2.60;;;;;;;;;;5088369;28;20958;-86
2022/04/24 16:30:04;;;;;;;13.93;2.20;;;;;;;;;;5087043;28;20447;-79
2022/04/24 16:32:33;;;;;;;16.40;2.60;;;;;;;;;;5088385;28;20445;-87
2022/04/24 16:35:04;;;;;;;19.80;3.17;;;;;;;;;;5087469;28;20447;-85
2022/04/24 16:37:32;;;;;;;13.07;2.20;;;;;;;;;;5067420;28;20490;-82
2022/04/24 16:40:00;;;;;;;17.73;2.60;;;;;;;;;;5067495;28;20953;-77
2022/04/24 16:42:28;;;;;;;14.10;2.17;;;;;;;;;;5067496;28;20532;-79
2022/04/24 16:45:00;;;;;;;14.23;2.37;;;;;;;;;;5067816;28;20452;-77
2022/04/24 16:47:29;;;;;;;15.33;2.93;;;;;;;;;;5062320;28;20970;-78
2022/04/24 16:49:57;;;;;;;14.37;3.27;;;;;;;;;;5054484;28;20470;-75
2022/04/24 17:00:41;;;;;;;13.20;2.80;;;;;;;;;;5054702;28;20486;-78
2022/04/24 17:03:10;;;;;;;14.60;3.50;;;;;;;;;;5054338;28;20458;-84
2022/04/24 17:05:38;;;;;;;16.57;3.23;;;;;;;;;;5054467;28;20477;-87
2022/04/24 17:08:08;;;;;;;17.63;3.90;;;;;;;;;;5053659;28;20445;-84
2022/04/24 17:10:37;;;;;;;16.50;4.60;;;;;;;;;;5055005;28;20884;-89
2022/04/24 17:13:05;;;;;;;15.87;3.70;;;;;;;;;;5053821;28;20456;-87
2022/04/24 17:15:34;;;;;;;16.07;3.83;;;;;;;;;;5052677;28;20956;-87
2022/04/24 17:18:04;;;;;;;19.70;6.70;;;;;;;;;;5054170;28;20441;-83
2022/04/24 17:20:32;;;;;;;84.37;37.90;;;;;;;;;;5054240;28;20448;-78
2022/04/24 17:23:02;;;;;;;18.33;6.07;;;;;;;;;;5054132;28;20958;-85
2022/04/24 17:25:32;;;;;;;15.00;4.33;;;;;;;;;;5053874;28;20890;-84
2022/04/24 17:28:00;;;;;;;17.40;4.03;;;;;;;;;;5053116;28;20516;-81
2022/04/24 17:30:27;;;;;;;16.40;3.90;;;;;;;;;;5054109;28;20448;-84
2022/04/24 17:32:55;;;;;;;15.47;3.30;;;;;;;;;;5050905;28;20503;-77
2022/04/24 17:35:24;;;;;;;19.27;3.53;;;;;;;;;;5055682;28;20456;-77
2022/04/24 17:37:52;;;;;;;21.90;3.47;;;;;;;;;;5073745;28;20525;-79
2022/04/24 17:40:20;;;;;;;18.40;3.53;;;;;;;;;;5073629;28;20434;-84
2022/04/24 17:42:48;;;;;;;13.70;2.70;;;;;;;;;;5073186;28;20445;-84
2022/04/24 17:45:16;;;;;;;16.60;4.07;;;;;;;;;;5073710;28;21032;-84
2022/04/24 17:47:43;;;;;;;40.40;18.97;;;;;;;;;;5073746;28;20525;-78
2022/04/24 17:50:12;;;;;;;13.40;2.90;;;;;;;;;;5072940;28;20445;-83
2022/04/24 17:52:42;;;;;;;16.33;4.37;;;;;;;;;;5073119;28;21034;-77
2022/04/24 17:55:10;;;;;;;14.70;3.17;;;;;;;;;;5072226;28;20462;-74
2022/04/24 17:57:37;;;;;;;15.93;3.37;;;;;;;;;;5072619;28;20478;-74
2022/04/24 18:00:05;;;;;;;16.10;3.10;;;;;;;;;;5072047;28;20466;-78
2022/04/24 18:02:33;;;;;;;14.63;3.00;;;;;;;;;;5072859;28;20830;-78
2022/04/24 18:05:01;;;;;;;14.13;3.00;;;;;;;;;;5072088;28;20445;-78
2022/04/24 18:07:28;;;;;;;13.77;2.73;;;;;;;;;;5072423;28;20516;-78
2022/04/24 18:09:58;;;;;;;14.07;2.70;;;;;;;;;;5073157;28;20449;-75
2022/04/24 18:12:28;;;;;;;13.43;2.77;;;;;;;;;;5072601;28;20446;-76
2022/04/24 18:14:56;;;;;;;14.50;2.90;;;;;;;;;;5073034;28;20497;-74
2022/04/24 18:17:24;;;;;;;13.43;3.10;;;;;;;;;;5072070;28;21015;-77
2022/04/24 18:19:51;;;;;;;12.70;2.43;;;;;;;;;;5072155;28;20439;-76
2022/04/24 18:22:19;;;;;;;15.70;3.50;;;;;;;;;;5072025;28;20431;-81
2022/04/24 18:24:46;;;;;;;13.67;2.50;;;;;;;;;;5072307;28;20441;-77
2022/04/24 18:27:16;;;;;;;14.83;3.30;;;;;;;;;;5070824;28;20465;-84
2022/04/24 18:29:44;;;;;;;14.37;3.00;;;;;;;;;;5070353;28;20513;-81
2022/04/24 18:32:11;;;;;;;16.90;3.37;;;;;;;;;;5072006;28;20449;-77
2022/04/24 18:34:39;;;;;;;14.50;2.90;;;;;;;;;;5071124;28;20442;-78
2022/04/24 18:39:51;;;;;;;12.90;2.37;;;;;;;;;;5071746;28;20451;-80
2022/04/24 18:42:21;;;;;;;20.27;3.53;;;;;;;;;;5073241;28;20465;-78
2022/04/24 18:44:49;;;;;;;19.77;3.40;;;;;;;;;;5071533;28;20520;-77
2022/04/24 18:47:17;;;;;;;15.40;3.50;;;;;;;;;;5066423;28;20477;-77
2022/04/24 18:49:45;;;;;;;14.60;3.27;;;;;;;;;;5070696;28;20433;-81
2022/04/24 18:52:15;;;;;;;18.20;3.30;;;;;;;;;;5071741;28;20955;-78
2022/04/24 18:54:43;;;;;;;14.57;2.83;;;;;;;;;;5071537;28;20924;-76
2022/04/24 18:57:11;;;;;;;17.23;3.90;;;;;;;;;;5066918;28;20556;-78
2022/04/24 18:59:41;;;;;;;17.40;3.60;;;;;;;;;;5070250;28;20468;-74
2022/04/24 19:02:09;;;;;;;14.63;2.73;;;;;;;;;;5071102;28;20448;-81
2022/04/24 19:07:34;;;;;;;15.00;3.73;;;;;;;;;;5070404;28;20422;-85
2022/04/24 19:12:47;;;;;;;35.60;15.87;;;;;;;;;;5071563;28;20871;-80
2022/04/24 19:15:17;;;;;;;16.83;4.50;;;;;;;;;;5071337;28;20856;-82
2022/04/24 19:17:45;;;;;;;14.60;3.90;;;;;;;;;;5071622;28;20478;-76
2022/04/24 19:20:14;;;;;;;19.07;4.23;;;;;;;;;;5071799;28;20442;-82
2022/04/24 19:22:42;;;;;;;16.67;4.00;;;;;;;;;;5071255;28;20446;-81
2022/04/24 19:25:10;;;;;;;17.37;4.30;;;;;;;;;;5071292;28;21030;-82
2022/04/24 19:27:37;;;;;;;15.40;3.10;;;;;;;;;;5070901;28;20447;-79
2022/04/24 19:30:06;;;;;;;13.83;3.50;;;;;;;;;;5071337;28;20431;-75
2022/04/24 19:32:35;;;;;;;16.03;3.90;;;;;;;;;;5071279;28;20441;-81
2022/04/24 19:35:05;;;;;;;17.20;3.90;;;;;;;;;;5070866;28;20944;-75
2022/04/24 19:37:34;;;;;;;16.50;3.70;;;;;;;;;;5071868;28;20844;-76
2022/04/24 19:40:01;;;;;;;17.20;4.10;;;;;;;;;;5071422;28;20874;-76
2022/04/24 19:42:29;;;;;;;15.93;4.17;;;;;;;;;;5057303;28;20466;-74
2022/04/24 19:44:57;;;;;;;16.30;4.27;;;;;;;;;;5063198;28;21631;-74
2022/04/24 19:47:24;;;;;;;18.50;4.40;;;;;;;;;;5054168;28;20468;-78
2022/04/24 19:49:53;;;;;;;17.27;3.50;;;;;;;;;;5061641;28;20451;-76
2022/04/24 19:52:20;;;;;;;18.33;3.80;;;;;;;;;;5054586;28;20439;-74
2022/04/24 19:54:49;;;;;;;14.90;3.13;;;;;;;;;;5061317;28;20461;-75
2022/04/24 19:57:17;;;;;;;16.27;3.53;;;;;;;;;;5068597;28;20475;-77
2022/04/24 19:59:44;;;;;;;19.23;3.40;;;;;;;;;;5069006;28;20439;-76
2022/04/24 20:02:11;;;;;;;17.73;2.67;;;;;;;;;;5069200;28;20435;-75
2022/04/24 20:04:39;;;;;;;15.53;2.90;;;;;;;;;;5069684;28;20446;-76
2022/04/24 20:07:08;;;;;;;13.77;2.90;;;;;;;;;;5069179;28;20480;-77
2022/04/24 20:09:36;;;;;;;14.70;2.80;;;;;;;;;;5067835;28;20455;-78
2022/04/24 20:12:03;;;;;;;20.43;3.30;;;;;;;;;;5069171;28;20443;-79
2022/04/24 20:14:31;;;;;;;16.03;2.53;;;;;;;;;;5069712;28;20453;-78
2022/04/24 20:16:58;;;;;;;13.10;2.77;;;;;;;;;;5069175;28;20851;-80
2022/04/24 20:19:25;;;;;;;15.00;2.43;;;;;;;;;;5069687;28;20447;-77
2022/04/24 20:21:53;;;;;;;13.95;2.75;;;;;;;;;;5070370;28;20394;-82
2022/04/24 20:24:22;;;;;;;14.43;3.07;;;;;;;;;;5072397;28;20220;-79
2022/04/24 20:26:50;;;;;;;15.30;2.60;;;;;;;;;;5073692;28;20443;-81
2022/04/24 20:29:18;;;;;;;17.13;3.20;;;;;;;;;;5074438;28;21002;-81
2022/04/24 20:31:45;;;;;;;18.13;2.60;;;;;;;;;;5074998;28;20439;-80
2022/04/24 20:34:13;;;;;;;14.63;2.13;;;;;;;;;;5071756;28;20435;-79
2022/04/24 20:36:40;;;;;;;12.93;2.23;;;;;;;;;;5074251;28;20478;-83
2022/04/24 20:39:10;;;;;;;17.10;2.97;;;;;;;;;;5074749;28;20457;-80
2022/04/24 20:41:43;;;;;;;16.77;2.80;;;;;;;;;;5074892;28;20434;-79
2022/04/24 20:44:14;;;;;;;16.10;1.90;;;;;;;;;;5075169;28;20451;-83
2022/04/24 20:46:42;;;;;;;14.33;2.77;;;;;;;;;;5075102;28;20509;-87
2022/04/24 20:49:09;;;;;;;13.40;2.10;;;;;;;;;;5073564;28;20439;-82
2022/04/24 20:51:37;;;;;;;12.37;2.10;;;;;;;;;;5074557;28;20446;-82
2022/04/24 20:54:05;;;;;;;14.60;2.37;;;;;;;;;;5074703;28;20465;-80
2022/04/24 20:56:34;;;;;;;12.87;2.23;;;;;;;;;;5074281;28;20474;-80
2022/04/24 20:59:04;;;;;;;13.53;2.20;;;;;;;;;;5074645;28;20497;-81
2022/04/24 21:01:31;;;;;;;16.27;2.60;;;;;;;;;;5074328;28;20454;-79
2022/04/24 21:03:59;;;;;;;15.20;1.93;;;;;;;;;;5074806;28;20448;-80
2022/04/24 21:06:26;;;;;;;14.57;2.30;;;;;;;;;;5074243;28;20948;-82
2022/04/24 21:08:54;;;;;;;15.93;2.17;;;;;;;;;;5074328;28;20451;-80
2022/04/24 21:11:21;;;;;;;15.20;2.60;;;;;;;;;;5074183;28;20435;-79
2022/04/24 21:13:49;;;;;;;12.70;2.00;;;;;;;;;;5074208;28;20978;-81
2022/04/24 21:16:19;;;;;;;17.53;2.57;;;;;;;;;;5074679;28;20840;-79
2022/04/24 21:18:46;;;;;;;13.60;2.27;;;;;;;;;;5074100;28;20486;-84
2022/04/24 21:21:13;;;;;;;17.90;2.70;;;;;;;;;;5073945;28;20431;-79
2022/04/24 21:23:41;;;;;;;15.63;2.20;;;;;;;;;;5073944;28;20442;-81
2022/04/24 21:26:08;;;;;;;14.23;2.13;;;;;;;;;;5073931;28;20447;-78
2022/04/24 21:28:36;;;;;;;15.70;2.63;;;;;;;;;;5073994;28;20435;-79
2022/04/24 21:31:03;;;;;;;13.23;2.23;;;;;;;;;;5073883;28;20463;-78
2022/04/24 21:33:32;;;;;;;19.67;2.70;;;;;;;;;;5073450;28;20534;-77
2022/04/24 21:36:00;;;;;;;13.50;2.20;;;;;;;;;;5073689;28;20478;-83
2022/04/24 21:38:27;;;;;;;14.30;2.70;;;;;;;;;;5073691;28;20479;-78
2022/04/24 21:40:55;;;;;;;14.43;1.80;;;;;;;;;;5073609;28;20807;-78
2022/04/24 21:43:22;;;;;;;14.30;2.10;;;;;;;;;;5073417;28;20446;-81
2022/04/24 21:45:49;;;;;;;12.40;2.07;;;;;;;;;;5073650;28;20450;-80
2022/04/24 21:48:17;;;;;;;15.50;3.00;;;;;;;;;;5073532;28;20465;-79
2022/04/24 21:50:46;;;;;;;15.03;2.27;;;;;;;;;;5073657;28;20439;-83
2022/04/24 21:53:13;;;;;;;16.80;2.00;;;;;;;;;;5073367;28;20447;-77
2022/04/24 21:55:41;;;;;;;12.90;1.90;;;;;;;;;;5073316;28;20466;-79
2022/04/24 21:58:08;;;;;;;14.20;2.07;;;;;;;;;;5073540;28;20831;-82
2022/04/24 22:00:40;;;;;;;15.43;2.33;;;;;;;;;;5073222;28;20446;-81
2022/04/24 22:05:54;;;;;;;15.60;2.20;;;;;;;;;;5073639;28;20434;-80
2022/04/24 22:08:22;;;;;;;14.47;2.20;;;;;;;;;;5072993;28;20447;-79
2022/04/24 22:10:49;;;;;;;13.60;2.27;;;;;;;;;;5073011;28;20447;-80
2022/04/24 22:13:17;;;;;;;13.13;2.00;;;;;;;;;;5072699;28;20447;-78
2022/04/24 22:15:44;;;;;;;13.27;2.37;;;;;;;;;;5073457;28;20813;-80
2022/04/24 22:18:12;;;;;;;13.27;1.93;;;;;;;;;;5073032;28;20478;-80
2022/04/24 22:20:39;;;;;;;14.50;2.30;;;;;;;;;;5071627;28;20822;-80
2022/04/24 22:25:55;;;;;;;14.93;2.13;;;;;;;;;;5072804;28;20434;-82
2022/04/24 22:28:22;;;;;;;14.23;2.00;;;;;;;;;;5072714;28;20507;-81
2022/04/24 22:30:50;;;;;;;14.47;2.40;;;;;;;;;;5072844;28;20448;-78
2022/04/24 22:33:18;;;;;;;14.03;2.20;;;;;;;;;;5072652;28;20811;-80
2022/04/24 22:35:47;;;;;;;14.07;2.33;;;;;;;;;;5072542;28;21026;-79
2022/04/24 22:38:16;;;;;;;17.77;2.50;;;;;;;;;;5072510;28;20483;-79
2022/04/24 22:40:44;;;;;;;18.97;2.10;;;;;;;;;;5072560;28;20449;-77
2022/04/24 22:43:12;;;;;;;13.00;1.90;;;;;;;;;;5072257;28;20437;-76
2022/04/24 22:45:40;;;;;;;13.90;2.33;;;;;;;;;;5072119;28;20883;-78
2022/04/24 22:48:11;;;;;;;15.03;2.33;;;;;;;;;;5072486;28;20538;-78
2022/04/24 22:50:38;;;;;;;12.07;1.93;;;;;;;;;;5072402;28;20534;-82
2022/04/24 22:53:06;;;;;;;12.93;1.97;;;;;;;;;;5072160;28;20443;-84
2022/04/24 22:55:35;;;;;;;15.27;2.53;;;;;;;;;;5071906;28;20992;-80
2022/04/24 22:58:03;;;;;;;13.20;2.30;;;;;;;;;;5072276;28;20862;-82
2022/04/24 23:00:30;;;;;;;14.07;2.30;;;;;;;;;;5072336;28;20443;-79
2022/04/24 23:03:00;;;;;;;22.67;2.50;;;;;;;;;;5072214;28;20447;-79
2022/04/24 23:05:27;;;;;;;13.10;2.30;;;;;;;;;;5071899;28;20496;-78
2022/04/24 23:07:55;;;;;;;14.87;2.20;;;;;;;;;;5072346;28;20450;-82
2022/04/24 23:10:23;;;;;;;15.93;2.27;;;;;;;;;;5072439;28;20427;-83
2022/04/24 23:12:52;;;;;;;13.20;2.00;;;;;;;;;;5072137;28;20443;-84
2022/04/24 23:15:20;;;;;;;17.57;2.80;;;;;;;;;;5071686;28;21009;-84
2022/04/24 23:20:32;;;;;;;21.63;2.70;;;;;;;;;;5072251;28;20435;-83
2022/04/24 23:22:59;;;;;;;15.27;2.37;;;;;;;;;;5071801;28;20453;-83
2022/04/24 23:25:27;;;;;;;18.20;2.13;;;;;;;;;;5071644;28;20443;-82
2022/04/24 23:27:57;;;;;;;14.57;2.33;;;;;;;;;;5072100;28;20451;-83
2022/04/24 23:30:24;;;;;;;17.00;2.40;;;;;;;;;;5071774;28;20435;-83
2022/04/24 23:32:51;;;;;;;16.00;2.33;;;;;;;;;;5071744;28;20431;-83
2022/04/24 23:35:19;;;;;;;16.40;2.50;;;;;;;;;;5071556;28;20442;-83
2022/04/24 23:37:46;;;;;;;14.17;2.40;;;;;;;;;;5071927;28;20458;-83
2022/04/24 23:40:14;;;;;;;12.13;1.90;;;;;;;;;;5072054;28;20454;-82
2022/04/24 23:42:42;;;;;;;13.97;2.37;;;;;;;;;;5071830;28;20518;-82
2022/04/24 23:45:11;;;;;;;16.30;2.37;;;;;;;;;;5071741;28;20968;-84
2022/04/24 23:47:39;;;;;;;15.37;2.63;;;;;;;;;;5071956;28;20805;-86
2022/04/24 23:50:06;;;;;;;15.77;2.43;;;;;;;;;;5072025;28;20441;-85
2022/04/24 23:52:34;;;;;;;16.10;2.27;;;;;;;;;;5072067;28;20447;-84
2022/04/24 23:55:01;;;;;;;17.57;2.67;;;;;;;;;;5071368;28;20932;-83
2022/04/24 23:57:29;;;;;;;15.27;2.50;;;;;;;;;;5072146;28;20447;-83
2022/04/24 23:59:56;;;;;;;16.23;2.33;;;;;;;;;;5075418;28;20485;-83
